Jimna, Australia
Current Conditions -  °F | °C
As of 2:00 PM on Friday 19 Dec 2014 (Local Time) from YBBN Reporting Station
Few Clouds Few Clouds  
Wind Chill: 84°   Ceiling: Unl
Heat Index: 88°   Visibility: 6mi
Dew Point: 70°   Wind: 14mph
Humidity: 62%   Direction: 10°N
Pressure: 29.8"   Gusts: NA
Location:  26.66°S, 152.46°E
Report Text: YBBN 190400Z 01012KT 9999 FEW026 29/21 Q1009
Loading
Personal Weather Stations






























Interactive Weather Map New forecast layout! Learn more

10-Day Weather Forecast

Advertisements
Track Severe Weather on mobile